Time;durP1;ratioP1;P1;durP2;ratioP2;P2;SDS_P1;SDS_P2;PMS_P1;PMS_P2;Temp;Humidity;BMP_temperature;BMP_pressure;BME280_temperature;BME280_humidity;BME280_pressure;Samples;Min_cycle;Max_cycle;Signal;HPM_P1;HPM_P2
2022/05/29 00:01:58;;;;;;;12.98;3.65;;;10.70;99.90;;;;;;5054405;28;20120;-65
2022/05/29 00:04:24;;;;;;;9.90;2.85;;;10.70;99.90;;;;;;5054235;28;20053;-66
2022/05/29 00:06:52;;;;;;;7.82;2.20;;;10.50;99.90;;;;;;5052543;28;20100;-66
2022/05/29 00:09:31;;;;;;;11.25;3.83;;;10.70;99.90;;;;;;5055167;28;20041;-66
2022/05/29 00:12:00;;;;;;;9.27;3.38;;;10.70;99.90;;;;;;5053778;28;20041;-65
2022/05/29 00:14:26;;;;;;;8.50;3.20;;;10.70;99.90;;;;;;5054445;28;20091;-65
2022/05/29 00:16:52;;;;;;;14.05;3.40;;;;;;;;;;5054728;28;20041;-65
2022/05/29 00:19:18;;;;;;;9.85;3.10;;;;;;;;;;5039561;28;20035;-65
2022/05/29 00:21:43;;;;;;;11.13;3.53;;;10.50;99.90;;;;;;5055451;28;20037;-65
2022/05/29 00:24:10;;;;;;;9.93;2.83;;;;;;;;;;5036615;28;20056;-65
2022/05/29 00:26:36;;;;;;;8.50;3.50;;;;;;;;;;5053417;28;20048;-64
2022/05/29 00:29:02;;;;;;;12.50;3.30;;;;;;;;;;5055716;28;20048;-65
2022/05/29 00:31:27;;;;;;;9.63;3.08;;;10.50;99.90;;;;;;5049871;28;20072;-66
2022/05/29 00:33:53;;;;;;;7.60;2.70;;;10.50;99.90;;;;;;5051047;28;20115;-64
2022/05/29 00:36:19;;;;;;;11.13;3.83;;;;;;;;;;5056579;28;20048;-66
2022/05/29 00:38:47;;;;;;;10.88;3.13;;;10.50;99.90;;;;;;5057643;28;20048;-66
2022/05/29 00:41:31;;;;;;;13.50;3.45;;;10.30;99.90;;;;;;5039039;28;20127;-64
2022/05/29 00:44:18;;;;;;;7.93;2.85;;;10.40;99.90;;;;;;5044109;28;20434;-65
2022/05/29 00:46:51;;;;;;;10.93;3.42;;;10.20;99.90;;;;;;5049876;28;20074;-65
2022/05/29 00:49:22;;;;;;;8.88;2.65;;;10.10;99.90;;;;;;5055296;28;20562;-65
2022/05/29 00:51:56;;;;;;;8.85;3.45;;;10.30;99.90;;;;;;5056386;28;20045;-64
2022/05/29 00:54:22;;;;;;;8.57;2.83;;;10.10;99.90;;;;;;5057906;28;20406;-65
2022/05/29 00:56:49;;;;;;;11.27;2.92;;;10.10;99.90;;;;;;5055213;28;20402;-65
2022/05/29 00:59:19;;;;;;;7.72;3.00;;;10.10;99.90;;;;;;5056278;28;20069;-65
2022/05/29 01:01:44;;;;;;;11.20;3.55;;;10.10;99.90;;;;;;5055168;28;20041;-65
2022/05/29 01:04:11;;;;;;;7.90;2.70;;;9.90;99.90;;;;;;5038135;28;20053;-65
2022/05/29 01:06:37;;;;;;;6.57;2.67;;;10.10;99.90;;;;;;5056673;28;20036;-65
2022/05/29 01:09:05;;;;;;;12.95;4.07;;;9.80;99.90;;;;;;5057009;28;20029;-65
2022/05/29 01:12:05;;;;;;;7.95;3.45;;;9.90;99.90;;;;;;5054845;28;20119;-66
2022/05/29 01:14:31;;;;;;;8.65;2.92;;;;;;;;;;5041930;28;20068;-65
2022/05/29 01:17:10;;;;;;;12.68;3.38;;;9.90;99.90;;;;;;5054861;28;20040;-65
2022/05/29 01:19:54;;;;;;;8.10;2.58;;;9.70;99.90;;;;;;5055479;28;20394;-66
2022/05/29 01:22:49;;;;;;;7.13;2.50;;;10.00;99.90;;;;;;5040521;28;20078;-65
2022/05/29 01:25:41;;;;;;;13.50;2.90;;;9.80;99.90;;;;;;5055846;28;20051;-66
2022/05/29 01:28:40;;;;;;;9.30;3.08;;;9.90;99.90;;;;;;5027338;28;20064;-65
2022/05/29 01:31:31;;;;;;;9.50;3.50;;;9.90;99.90;;;;;;5037838;28;20043;-64
2022/05/29 01:34:08;;;;;;;9.77;3.58;;;9.80;99.90;;;;;;5054382;28;20155;-65
2022/05/29 01:37:12;;;;;;;10.45;3.63;;;10.10;99.90;;;;;;5053718;28;20399;-64
2022/05/29 01:40:21;;;;;;;12.57;3.78;;;9.90;99.90;;;;;;5052987;28;20075;-65
2022/05/29 01:42:49;;;;;;;13.32;4.05;;;10.20;99.90;;;;;;5053339;28;20043;-65
2022/05/29 01:45:22;;;;;;;10.10;3.53;;;10.10;99.90;;;;;;5054488;28;20041;-65
2022/05/29 01:47:58;;;;;;;12.85;3.78;;;10.10;99.90;;;;;;5054268;28;20090;-65
2022/05/29 01:50:33;;;;;;;11.95;3.63;;;10.10;99.90;;;;;;5036295;28;20041;-65
2022/05/29 01:53:12;;;;;;;10.45;2.95;;;10.10;99.90;;;;;;5055021;28;20041;-65
2022/05/29 01:55:44;;;;;;;7.93;2.70;;;10.10;99.90;;;;;;5054369;28;20049;-65
2022/05/29 01:58:18;;;;;;;11.13;3.70;;;10.00;99.90;;;;;;5052339;28;20041;-65
2022/05/29 02:00:47;;;;;;;11.93;3.33;;;10.10;99.90;;;;;;5052350;28;20037;-66
2022/05/29 02:03:24;;;;;;;13.43;3.35;;;10.20;99.90;;;;;;5051932;28;20075;-65
2022/05/29 02:05:57;;;;;;;15.90;4.65;;;10.10;99.90;;;;;;5035296;28;20056;-65
2022/05/29 02:08:44;;;;;;;13.43;3.30;;;10.10;99.90;;;;;;5052326;28;20442;-65
2022/05/29 02:11:25;;;;;;;7.38;3.05;;;10.20;99.90;;;;;;5052170;28;20041;-66
2022/05/29 02:14:12;;;;;;;8.38;2.83;;;;;;;;;;5039411;28;20036;-65
2022/05/29 02:16:45;;;;;;;8.25;3.22;;;;;;;;;;5053146;28;20079;-66
2022/05/29 02:19:22;;;;;;;13.43;3.60;;;10.00;99.90;;;;;;5051752;28;20453;-65
2022/05/29 02:22:05;;;;;;;10.88;3.33;;;10.30;99.90;;;;;;5052463;28;20045;-66
2022/05/29 02:24:44;;;;;;;14.55;3.83;;;10.00;99.90;;;;;;5039280;28;20056;-66
2022/05/29 02:27:21;;;;;;;12.93;3.80;;;10.10;99.90;;;;;;5053122;28;20422;-65
2022/05/29 02:29:46;;;;;;;15.15;3.00;;;10.20;99.90;;;;;;5053100;28;20029;-65
2022/05/29 02:32:21;;;;;;;15.52;3.33;;;10.20;99.90;;;;;;5051555;28;20047;-65
2022/05/29 02:35:20;;;;;;;13.27;2.83;;;10.30;99.90;;;;;;5053318;28;20372;-66
2022/05/29 02:38:00;;;;;;;10.25;3.58;;;10.20;99.90;;;;;;5053020;28;20041;-65
2022/05/29 02:40:42;;;;;;;12.00;3.83;;;10.20;99.90;;;;;;5035111;28;20033;-65
2022/05/29 02:43:40;;;;;;;10.75;3.65;;;10.10;99.90;;;;;;5038197;28;20040;-65
2022/05/29 02:46:43;;;;;;;9.00;3.25;;;10.10;99.90;;;;;;5051591;28;20053;-65
2022/05/29 02:49:22;;;;;;;12.23;3.50;;;10.10;99.90;;;;;;5053015;28;20033;-65
2022/05/29 02:51:55;;;;;;;8.55;2.80;;;10.20;99.90;;;;;;5019042;28;20033;-65
2022/05/29 02:54:25;;;;;;;11.93;3.05;;;10.00;99.90;;;;;;5046315;28;20037;-65
2022/05/29 02:56:52;;;;;;;12.30;3.53;;;10.20;99.90;;;;;;5052002;28;20045;-65
2022/05/29 02:59:18;;;;;;;10.63;4.05;;;10.20;99.90;;;;;;5034893;28;20037;-65
2022/05/29 03:02:13;;;;;;;13.75;4.38;;;10.20;99.90;;;;;;5051452;28;20394;-65
2022/05/29 03:04:54;;;;;;;14.88;3.28;;;10.10;99.90;;;;;;5050509;28;20065;-65
2022/05/29 03:07:58;;;;;;;7.22;2.72;;;10.20;99.90;;;;;;5051158;28;20052;-65
2022/05/29 03:10:32;;;;;;;11.40;3.08;;;10.10;99.90;;;;;;5052761;28;20517;-65
2022/05/29 03:13:15;;;;;;;9.83;3.77;;;10.20;99.90;;;;;;5051053;28;20049;-66
2022/05/29 03:15:55;;;;;;;13.68;3.55;;;10.30;99.90;;;;;;5052337;28;20279;-64
2022/05/29 03:18:44;;;;;;;10.52;3.15;;;10.30;99.90;;;;;;5052595;28;20052;-66
2022/05/29 03:21:20;;;;;;;10.65;3.08;;;10.20;99.90;;;;;;5050559;28;20049;-65
2022/05/29 03:24:12;;;;;;;12.50;3.80;;;10.40;99.90;;;;;;5052138;28;20045;-65
2022/05/29 03:26:50;;;;;;;9.57;3.10;;;10.30;99.90;;;;;;5037550;28;20606;-65
2022/05/29 03:29:25;;;;;;;8.30;3.38;;;10.30;99.90;;;;;;5052971;28;20048;-65
2022/05/29 03:31:52;;;;;;;11.93;3.33;;;10.30;99.90;;;;;;5039422;28;20045;-65
2022/05/29 03:34:18;;;;;;;14.43;3.25;;;;;;;;;;5052344;28;20395;-65
2022/05/29 03:36:48;;;;;;;9.52;2.88;;;10.40;99.90;;;;;;5050886;28;20045;-65
2022/05/29 03:39:14;;;;;;;13.48;4.70;;;10.20;99.90;;;;;;5052666;28;20041;-65
2022/05/29 03:41:44;;;;;;;12.10;3.25;;;10.30;99.90;;;;;;5051284;28;20040;-65
2022/05/29 03:44:14;;;;;;;12.27;2.80;;;;;;;;;;5034748;28;20053;-65
2022/05/29 03:46:39;;;;;;;12.27;2.88;;;10.20;99.90;;;;;;5052430;28;20091;-65
2022/05/29 03:49:09;;;;;;;6.57;2.60;;;10.40;99.90;;;;;;5052428;28;20429;-65
2022/05/29 03:51:35;;;;;;;7.55;2.45;;;10.20;99.90;;;;;;5035096;28;20044;-65
2022/05/29 03:54:02;;;;;;;8.48;3.05;;;10.20;99.90;;;;;;5034367;28;20085;-66
2022/05/29 03:56:28;;;;;;;8.10;2.22;;;10.30;99.90;;;;;;5050733;28;20041;-65
2022/05/29 03:58:54;;;;;;;7.97;2.38;;;10.30;99.90;;;;;;5034137;28;20087;-65
2022/05/29 04:01:20;;;;;;;6.88;2.30;;;10.40;99.90;;;;;;5050668;28;20064;-66
2022/05/29 04:03:45;;;;;;;13.00;2.60;;;10.20;99.90;;;;;;5055543;28;20562;-66
2022/05/29 04:06:11;;;;;;;8.75;2.45;;;10.30;99.90;;;;;;5055852;28;20055;-65
2022/05/29 04:14:06;;;;;;;11.15;2.15;;;10.20;99.90;;;;;;5054881;28;20271;-65
2022/05/29 04:16:32;;;;;;;13.60;2.88;;;10.40;99.90;;;;;;5054272;28;20402;-65
2022/05/29 04:18:58;;;;;;;13.48;2.58;;;10.30;99.90;;;;;;5054565;28;20041;-66
2022/05/29 04:21:24;;;;;;;11.63;2.53;;;10.20;99.90;;;;;;5056073;28;20029;-66
2022/05/29 04:23:50;;;;;;;8.35;2.67;;;;;;;;;;5053770;28;20053;-64
2022/05/29 04:26:17;;;;;;;11.65;3.03;;;10.30;99.90;;;;;;5051811;28;20040;-66
2022/05/29 04:28:43;;;;;;;4.95;2.13;;;10.40;99.90;;;;;;5045399;28;20132;-65
2022/05/29 04:31:08;;;;;;;10.32;2.50;;;10.50;99.90;;;;;;5052775;28;20071;-66
2022/05/29 04:33:34;;;;;;;12.40;2.88;;;10.30;99.90;;;;;;5053552;28;20066;-65
2022/05/29 04:36:00;;;;;;;11.75;2.90;;;10.40;99.90;;;;;;5055177;28;20098;-65
2022/05/29 04:38:27;;;;;;;9.70;2.78;;;10.50;99.90;;;;;;5055138;28;20159;-65
2022/05/29 04:40:54;;;;;;;7.35;2.50;;;10.60;99.90;;;;;;5053799;28;20410;-65
2022/05/29 04:43:20;;;;;;;8.32;2.47;;;10.50;99.90;;;;;;5052735;28;20151;-65
2022/05/29 04:45:51;;;;;;;8.65;2.63;;;10.40;99.90;;;;;;5055237;28;20041;-66
2022/05/29 04:48:16;;;;;;;8.95;2.88;;;10.40;99.90;;;;;;5037922;28;20041;-65
2022/05/29 04:50:43;;;;;;;8.75;2.70;;;10.70;99.90;;;;;;5055341;28;20045;-66
2022/05/29 04:53:09;;;;;;;10.07;2.63;;;10.60;99.90;;;;;;5054131;28;20045;-65
2022/05/29 04:55:35;;;;;;;9.57;3.30;;;10.50;99.90;;;;;;5054978;28;20127;-66
2022/05/29 04:58:01;;;;;;;10.80;2.40;;;10.70;99.90;;;;;;5055155;28;20052;-66
2022/05/29 05:00:27;;;;;;;10.38;2.38;;;10.60;99.90;;;;;;5055189;28;20556;-65
2022/05/29 05:02:53;;;;;;;8.77;3.13;;;10.70;99.90;;;;;;5054821;28;20037;-66
2022/05/29 05:05:18;;;;;;;6.75;2.17;;;10.70;99.90;;;;;;5053587;28;20045;-66
2022/05/29 05:07:44;;;;;;;11.93;2.65;;;10.50;99.90;;;;;;5053569;28;20041;-65
2022/05/29 05:10:12;;;;;;;6.28;2.38;;;10.60;99.90;;;;;;5054939;28;20098;-65
2022/05/29 05:12:38;;;;;;;8.10;2.15;;;10.70;99.90;;;;;;5054522;28;20344;-63
2022/05/29 05:15:04;;;;;;;8.63;2.60;;;10.80;99.90;;;;;;5053792;28;20041;-64
2022/05/29 05:17:30;;;;;;;8.90;2.72;;;10.70;99.90;;;;;;5054131;28;20033;-64
2022/05/29 05:19:56;;;;;;;6.18;2.33;;;10.80;99.90;;;;;;5054444;28;20570;-64
2022/05/29 05:22:22;;;;;;;7.88;2.25;;;;;;;;;;5053764;28;20037;-65
2022/05/29 05:24:48;;;;;;;10.38;2.42;;;10.70;99.90;;;;;;5054157;28;20076;-64
2022/05/29 05:27:15;;;;;;;5.72;2.05;;;10.70;99.90;;;;;;5054333;28;20075;-63
2022/05/29 05:29:41;;;;;;;12.18;2.47;;;11.00;99.90;;;;;;5053971;28;20039;-63
2022/05/29 05:32:07;;;;;;;15.10;2.97;;;10.90;99.90;;;;;;5053912;28;20040;-63
2022/05/29 05:34:33;;;;;;;6.30;1.90;;;10.90;99.90;;;;;;5054039;28;20037;-63
2022/05/29 05:36:59;;;;;;;14.45;2.40;;;;;;;;;;5050608;28;20040;-65
2022/05/29 05:39:24;;;;;;;10.93;2.70;;;11.10;99.90;;;;;;5051920;28;20403;-64
2022/05/29 05:41:50;;;;;;;10.10;2.13;;;10.90;99.90;;;;;;5053319;28;20059;-64
2022/05/29 05:44:16;;;;;;;8.55;2.85;;;11.00;99.90;;;;;;5050600;28;20041;-63
2022/05/29 05:46:50;;;;;;;8.93;2.13;;;11.10;99.90;;;;;;5053042;28;20036;-63
2022/05/29 05:49:17;;;;;;;16.65;3.55;;;11.00;99.90;;;;;;5053591;28;20032;-64
2022/05/29 05:51:43;;;;;;;12.70;2.85;;;11.10;99.90;;;;;;5052972;28;20048;-64
2022/05/29 05:54:08;;;;;;;8.50;2.90;;;11.20;99.90;;;;;;5052010;28;20480;-63
2022/05/29 05:56:34;;;;;;;7.93;2.55;;;11.20;99.90;;;;;;5052018;28;20040;-62
2022/05/29 05:59:00;;;;;;;8.95;2.28;;;11.20;99.90;;;;;;5053341;28;20127;-63
2022/05/29 06:01:25;;;;;;;7.72;1.90;;;11.20;99.90;;;;;;5047690;28;20033;-64
2022/05/29 06:03:51;;;;;;;7.35;2.05;;;11.30;99.90;;;;;;5045275;28;20040;-64
2022/05/29 06:06:18;;;;;;;5.85;2.03;;;;;;;;;;5051670;28;20040;-64
2022/05/29 06:08:44;;;;;;;10.48;2.83;;;;;;;;;;5050196;28;20403;-64
2022/05/29 06:11:09;;;;;;;11.75;2.55;;;11.30;99.90;;;;;;5047919;28;20091;-63
2022/05/29 06:13:35;;;;;;;13.88;2.58;;;;;;;;;;5040276;28;20478;-64
2022/05/29 06:16:02;;;;;;;6.75;2.05;;;11.30;99.90;;;;;;5045102;28;20076;-65
2022/05/29 06:18:29;;;;;;;10.32;2.63;;;;;;;;;;5046943;28;20055;-65
2022/05/29 06:21:00;;;;;;;12.35;2.67;;;11.30;99.90;;;;;;5044647;28;20041;-64
2022/05/29 06:23:26;;;;;;;9.23;1.75;;;11.40;99.90;;;;;;5046617;28;20191;-64
2022/05/29 06:25:52;;;;;;;11.13;1.80;;;;;;;;;;5045728;28;20048;-65
2022/05/29 06:28:18;;;;;;;8.82;2.38;;;11.30;99.90;;;;;;5045175;28;20520;-65
2022/05/29 06:30:44;;;;;;;11.10;2.17;;;;;;;;;;5042951;28;20547;-65
2022/05/29 06:33:11;;;;;;;9.32;2.08;;;11.10;99.90;;;;;;5044607;28;20060;-65
2022/05/29 06:35:37;;;;;;;17.08;2.20;;;;;;;;;;5045599;28;20044;-65
2022/05/29 06:38:03;;;;;;;11.80;2.50;;;;;;;;;;5044934;28;20372;-65
2022/05/29 06:40:29;;;;;;;10.60;3.28;;;;;;;;;;5046470;28;20037;-65
2022/05/29 06:42:55;;;;;;;11.25;2.25;;;;;;;;;;5041728;28;20045;-65
2022/05/29 06:45:21;;;;;;;11.55;2.25;;;;;;;;;;5040548;28;20045;-65
2022/05/29 06:47:47;;;;;;;10.25;2.15;;;11.30;99.90;;;;;;5041698;28;20064;-64
2022/05/29 06:50:13;;;;;;;14.50;2.35;;;;;;;;;;5041220;28;20061;-65
2022/05/29 06:52:39;;;;;;;12.60;2.60;;;;;;;;;;5040199;28;20056;-64
2022/05/29 06:55:06;;;;;;;6.38;1.70;;;11.30;99.90;;;;;;5040291;28;20049;-66
2022/05/29 06:57:46;;;;;;;10.88;2.30;;;;;;;;;;5040137;28;20409;-65
2022/05/29 07:08:27;;;;;;;12.30;2.50;;;11.50;99.90;;;;;;5021424;28;20041;-65
2022/05/29 07:10:54;;;;;;;13.73;3.50;;;;;;;;;;5022508;28;20047;-67
2022/05/29 07:13:20;;;;;;;9.48;2.45;;;;;;;;;;5028525;28;20053;-65
2022/05/29 07:15:46;;;;;;;13.75;2.13;;;;;;;;;;5021798;28;20044;-66
2022/05/29 07:18:13;;;;;;;11.15;1.50;;;;;;;;;;5024441;28;20075;-65
2022/05/29 07:20:38;;;;;;;11.95;2.97;;;;;;;;;;5021758;28;20045;-65
2022/05/29 07:23:05;;;;;;;11.18;2.88;;;;;;;;;;5021896;28;20506;-65
2022/05/29 07:25:30;;;;;;;14.25;2.63;;;11.70;99.90;;;;;;5025649;28;20495;-64
2022/05/29 07:27:57;;;;;;;17.17;2.63;;;;;;;;;;5021626;28;20041;-65
2022/05/29 07:30:22;;;;;;;8.98;2.58;;;11.80;99.90;;;;;;5025012;28;20046;-65
2022/05/29 07:32:48;;;;;;;10.00;1.90;;;;;;;;;;5025882;28;20129;-65
2022/05/29 07:35:16;;;;;;;8.90;1.58;;;11.80;99.90;;;;;;5037323;28;20037;-65
2022/05/29 07:37:42;;;;;;;8.48;1.98;;;;;;;;;;5043630;28;20045;-64
2022/05/29 07:40:09;;;;;;;12.73;2.75;;;;;;;;;;5045885;28;20510;-63
2022/05/29 07:45:19;;;;;;;5.88;1.45;;;;;;;;;;5048888;28;20057;-63
2022/05/29 07:47:48;;;;;;;12.27;1.98;;;12.00;99.90;;;;;;5050018;28;20043;-64
2022/05/29 07:50:20;;;;;;;6.93;2.03;;;12.00;99.90;;;;;;5050733;28;20044;-65
2022/05/29 07:52:46;;;;;;;11.15;1.75;;;12.10;99.90;;;;;;5032162;28;20111;-65
2022/05/29 07:55:13;;;;;;;7.45;1.67;;;12.00;99.90;;;;;;5050489;28;20084;-65
2022/05/29 07:57:39;;;;;;;6.70;1.40;;;;;;;;;;5047323;28;20067;-64
2022/05/29 08:00:07;;;;;;;9.55;1.73;;;12.00;99.90;;;;;;5050377;28;20044;-65
2022/05/29 08:02:34;;;;;;;8.82;1.65;;;;;;;;;;5048926;28;20111;-65
2022/05/29 08:05:01;;;;;;;12.15;2.00;;;12.00;99.90;;;;;;5035293;28;20154;-66
2022/05/29 08:07:27;;;;;;;14.52;1.85;;;12.00;99.90;;;;;;5041046;28;20455;-64
2022/05/29 08:09:53;;;;;;;7.18;1.90;;;;;;;;;;5043614;28;20044;-63
2022/05/29 08:12:18;;;;;;;8.25;1.75;;;12.00;99.90;;;;;;5034987;28;20037;-64
2022/05/29 08:14:44;;;;;;;15.70;2.45;;;11.90;99.90;;;;;;5031939;28;20044;-65
2022/05/29 08:17:09;;;;;;;4.95;1.67;;;11.80;99.90;;;;;;5037852;28;20045;-65
2022/05/29 08:19:36;;;;;;;7.93;1.35;;;11.80;99.90;;;;;;5039235;28;20866;-65
2022/05/29 08:22:02;;;;;;;6.25;1.83;;;;;;;;;;5035139;28;20067;-65
2022/05/29 08:32:42;;;;;;;4.77;1.43;;;;;;;;;;5035274;28;20076;-65
2022/05/29 08:35:08;;;;;;;12.93;2.90;;;;;;;;;;5041983;28;20048;-66
2022/05/29 08:37:34;;;;;;;8.43;1.70;;;;;;;;;;5032613;28;20136;-64
2022/05/29 08:40:01;;;;;;;8.40;1.55;;;;;;;;;;5034153;28;20055;-64
2022/05/29 08:42:29;;;;;;;8.05;3.08;;;11.90;99.90;;;;;;5029769;28;20095;-65
2022/05/29 08:44:56;;;;;;;5.13;1.20;;;;;;;;;;5032752;28;20172;-64
2022/05/29 08:47:27;;;;;;;8.13;1.40;;;12.10;99.90;;;;;;5032419;28;20052;-64
2022/05/29 08:49:53;;;;;;;4.68;1.30;;;12.10;99.90;;;;;;5030014;28;20043;-64
2022/05/29 08:52:53;;;;;;;4.40;1.30;;;12.00;99.90;;;;;;5038022;28;20491;-64
2022/05/29 08:55:28;;;;;;;4.10;1.05;;;12.10;99.90;;;;;;5046056;28;20523;-64
2022/05/29 08:58:13;;;;;;;4.28;1.13;;;12.20;99.90;;;;;;5047962;28;20048;-63
2022/05/29 09:00:39;;;;;;;8.77;1.70;;;;;;;;;;5045027;28;20041;-64
2022/05/29 09:03:31;;;;;;;7.43;1.55;;;12.20;99.90;;;;;;5043078;28;20053;-61
2022/05/29 09:06:14;;;;;;;8.23;1.42;;;12.20;99.90;;;;;;5038283;28;20052;-64
2022/05/29 09:08:54;;;;;;;4.80;1.67;;;12.00;99.90;;;;;;5039077;28;20052;-63
2022/05/29 09:11:44;;;;;;;7.70;1.25;;;12.10;99.90;;;;;;5039372;28;20043;-62
2022/05/29 09:14:18;;;;;;;6.30;1.17;;;12.10;99.90;;;;;;5040802;28;20517;-64
2022/05/29 09:16:46;;;;;;;6.88;1.23;;;12.00;99.90;;;;;;5039386;28;20044;-64
2022/05/29 09:19:28;;;;;;;4.28;1.23;;;12.00;99.90;;;;;;5040150;28;20041;-63
2022/05/29 09:22:19;;;;;;;6.82;1.42;;;12.00;99.90;;;;;;5040413;28;20048;-63
2022/05/29 09:24:53;;;;;;;4.75;1.17;;;11.90;99.90;;;;;;5036246;28;20068;-64
2022/05/29 09:27:19;;;;;;;3.28;1.13;;;;;;;;;;5039031;28;20454;-66
2022/05/29 09:29:45;;;;;;;4.07;1.50;;;;;;;;;;5039373;28;20563;-66
2022/05/29 09:32:18;;;;;;;3.25;1.48;;;12.00;99.90;;;;;;5041500;28;20094;-64
2022/05/29 09:34:55;;;;;;;6.60;1.20;;;11.80;99.90;;;;;;5041598;28;20092;-65
2022/05/29 09:37:42;;;;;;;4.38;1.25;;;12.10;99.90;;;;;;5026743;28;20041;-64
2022/05/29 09:40:16;;;;;;;6.93;1.55;;;12.10;99.90;;;;;;5039692;28;20047;-63
2022/05/29 09:42:43;;;;;;;7.73;1.30;;;12.20;99.90;;;;;;5042919;28;20044;-65
2022/05/29 09:45:23;;;;;;;8.25;1.98;;;11.90;99.90;;;;;;5045022;28;20041;-64
2022/05/29 09:50:57;;;;;;;9.10;2.07;;;12.00;99.90;;;;;;5043811;28;20044;-64
2022/05/29 09:53:28;;;;;;;8.55;1.38;;;11.90;99.90;;;;;;5049749;28;20321;-64
2022/05/29 09:56:04;;;;;;;7.28;1.50;;;12.00;99.90;;;;;;5043379;28;20053;-65
2022/05/29 09:58:43;;;;;;;6.78;1.40;;;12.00;99.90;;;;;;5046401;28;20503;-64
2022/05/29 10:01:09;;;;;;;8.35;1.52;;;12.10;99.90;;;;;;5046120;28;20496;-64
2022/05/29 10:03:50;;;;;;;8.15;1.70;;;12.10;99.90;;;;;;5048261;28;20048;-64
2022/05/29 10:06:22;;;;;;;5.90;1.70;;;12.30;99.90;;;;;;5051987;28;20036;-63
2022/05/29 10:08:51;;;;;;;8.77;1.73;;;12.30;99.90;;;;;;5047899;28;20411;-63
2022/05/29 10:11:22;;;;;;;9.95;1.55;;;12.30;99.90;;;;;;5049462;28;20037;-64
2022/05/29 10:13:50;;;;;;;8.65;1.58;;;12.40;99.90;;;;;;5049351;28;20051;-64
2022/05/29 10:16:32;;;;;;;5.90;1.70;;;12.40;99.90;;;;;;5038804;28;20032;-65
2022/05/29 10:18:58;;;;;;;4.55;1.40;;;;;;;;;;5049999;28;20041;-65
2022/05/29 10:21:28;;;;;;;5.57;1.80;;;12.40;99.90;;;;;;5048427;28;20037;-64
2022/05/29 10:24:09;;;;;;;7.35;1.42;;;12.20;99.90;;;;;;5045485;28;20100;-66
2022/05/29 10:26:36;;;;;;;4.75;1.33;;;12.20;99.90;;;;;;5049561;28;20159;-65
2022/05/29 10:29:17;;;;;;;5.70;2.00;;;12.10;99.90;;;;;;5043619;28;20047;-64
2022/05/29 10:31:45;;;;;;;7.18;1.67;;;12.10;99.90;;;;;;5039014;28;20045;-64
2022/05/29 10:34:26;;;;;;;6.72;1.63;;;12.10;99.90;;;;;;5038145;28;20505;-64
2022/05/29 10:36:52;;;;;;;4.55;1.13;;;12.10;99.90;;;;;;5031511;28;20144;-64
2022/05/29 10:39:29;;;;;;;11.93;2.35;;;12.20;99.90;;;;;;5036476;28;20049;-65
2022/05/29 10:41:55;;;;;;;9.15;1.98;;;12.20;99.90;;;;;;5050025;28;20445;-69
2022/05/29 10:44:40;;;;;;;7.72;1.83;;;12.60;99.90;;;;;;5051150;28;20037;-65
2022/05/29 10:47:32;;;;;;;6.28;1.20;;;12.20;99.90;;;;;;5049807;28;20510;-66
2022/05/29 10:50:24;;;;;;;8.75;1.75;;;12.40;99.90;;;;;;5065218;28;20407;-67
2022/05/29 10:53:09;;;;;;;9.98;1.67;;;12.40;99.90;;;;;;5048260;28;20186;-66
2022/05/29 10:56:09;;;;;;;6.13;1.40;;;12.50;99.90;;;;;;5049277;28;20044;-67
2022/05/29 10:58:52;;;;;;;10.30;1.52;;;12.60;99.90;;;;;;5051033;28;20079;-66
2022/05/29 11:04:50;;;;;;;4.05;1.40;;;12.50;99.90;;;;;;5042596;28;20048;-65
2022/05/29 11:07:53;;;;;;;7.85;1.65;;;12.80;99.90;;;;;;5049584;28;20435;-68
2022/05/29 11:10:41;;;;;;;7.07;1.38;;;12.70;99.90;;;;;;5049061;28;20094;-62
2022/05/29 11:13:23;;;;;;;11.20;3.20;;;12.60;99.90;;;;;;5051664;28;20047;-65
2022/05/29 11:16:33;;;;;;;10.80;3.38;;;12.80;99.90;;;;;;5049416;28;20125;-65
2022/05/29 11:19:26;;;;;;;15.52;9.70;;;12.80;99.90;;;;;;5046651;28;20076;-65
2022/05/29 11:22:27;;;;;;;11.95;3.42;;;12.80;99.90;;;;;;5046932;28;20051;-65
2022/05/29 11:25:30;;;;;;;8.13;1.67;;;12.80;99.90;;;;;;5034944;28;20068;-65
2022/05/29 11:28:18;;;;;;;6.30;2.13;;;12.60;99.90;;;;;;5050215;28;20037;-66
2022/05/29 11:30:58;;;;;;;4.57;1.13;;;12.60;99.90;;;;;;5050403;28;20040;-66
2022/05/29 11:34:05;;;;;;;4.82;2.47;;;12.50;99.90;;;;;;5048023;28;20403;-67
2022/05/29 11:36:58;;;;;;;9.43;1.67;;;12.40;99.90;;;;;;5015298;28;20085;-65
2022/05/29 11:39:32;;;;;;;8.02;2.63;;;12.20;99.90;;;;;;5037573;28;20452;-66
2022/05/29 11:42:19;;;;;;;7.15;1.27;;;12.20;99.90;;;;;;5048732;28;20077;-65
2022/05/29 11:45:00;;;;;;;9.38;2.03;;;12.20;99.90;;;;;;5048644;28;20068;-66
2022/05/29 11:53:36;;;;;;;10.18;1.92;;;12.20;99.90;;;;;;5048942;28;20045;-64
2022/05/29 11:56:08;;;;;;;11.10;1.92;;;12.30;99.90;;;;;;5047556;28;20041;-64
2022/05/29 11:58:47;;;;;;;3.72;1.90;;;12.30;99.90;;;;;;5034050;28;20044;-65
2022/05/29 12:01:23;;;;;;;7.80;1.77;;;11.70;99.90;;;;;;5032471;28;20045;-66
2022/05/29 12:04:15;;;;;;;8.10;2.08;;;12.20;99.90;;;;;;5045501;28;20055;-66
2022/05/29 12:06:47;;;;;;;5.13;1.95;;;12.30;99.90;;;;;;5034991;28;20067;-66
2022/05/29 12:09:23;;;;;;;8.90;1.98;;;12.40;99.90;;;;;;5037478;28;20043;-66
2022/05/29 12:11:52;;;;;;;13.88;1.75;;;12.60;99.90;;;;;;5033783;28;20519;-65
2022/05/29 12:14:39;;;;;;;5.38;1.45;;;12.60;99.90;;;;;;5031011;28;20053;-65
2022/05/29 12:17:13;;;;;;;9.88;1.70;;;12.50;99.90;;;;;;5036213;28;20131;-65
2022/05/29 12:19:51;;;;;;;6.20;1.40;;;12.50;99.90;;;;;;5046557;28;20454;-65
2022/05/29 12:22:33;;;;;;;8.10;1.92;;;12.60;99.90;;;;;;5046919;28;20082;-64
2022/05/29 12:24:59;;;;;;;7.28;1.65;;;12.80;99.90;;;;;;5048300;28;20048;-63
2022/05/29 12:27:28;;;;;;;10.25;1.95;;;12.80;99.90;;;;;;5041584;28;20037;-64
2022/05/29 12:30:11;;;;;;;6.05;1.40;;;12.70;99.90;;;;;;5050121;28;20037;-65
2022/05/29 12:32:37;;;;;;;5.07;1.83;;;12.70;99.90;;;;;;5050464;28;20107;-64
2022/05/29 12:35:35;;;;;;;17.17;1.58;;;13.90;99.90;;;;;;5048615;28;20544;-65
2022/05/29 12:38:13;;;;;;;7.60;1.67;;;12.60;99.90;;;;;;5047991;28;20051;-64
2022/05/29 12:41:16;;;;;;;7.10;2.10;;;12.70;99.90;;;;;;5048694;28;20052;-65
2022/05/29 12:44:06;;;;;;;6.53;1.58;;;12.70;99.90;;;;;;5048155;28;20072;-65
2022/05/29 12:46:41;;;;;;;10.85;2.00;;;12.60;99.90;;;;;;5049848;28;20041;-65
2022/05/29 12:49:58;;;;;;;8.52;1.63;;;12.50;99.90;;;;;;5049229;28;20149;-64
2022/05/29 12:53:03;;;;;;;8.45;1.70;;;12.40;99.90;;;;;;5010932;28;20585;-64
2022/05/29 12:55:49;;;;;;;12.50;2.47;;;12.30;99.90;;;;;;5022876;28;20052;-64
2022/05/29 12:58:36;;;;;;;5.65;1.58;;;12.50;99.90;;;;;;5039472;28;20089;-64
2022/05/29 13:01:35;;;;;;;9.40;1.52;;;12.50;99.90;;;;;;5032716;28;20045;-65
2022/05/29 13:04:18;;;;;;;7.63;1.48;;;12.50;99.90;;;;;;5044480;28;20128;-65
2022/05/29 13:07:21;;;;;;;13.18;2.10;;;12.60;99.90;;;;;;5037788;28;20047;-64
2022/05/29 13:09:59;;;;;;;8.65;2.20;;;12.50;99.90;;;;;;5046931;28;20414;-64
2022/05/29 13:12:40;;;;;;;14.68;2.53;;;12.70;99.90;;;;;;5048467;28;20033;-65
2022/05/29 13:15:10;;;;;;;5.93;2.00;;;12.60;99.90;;;;;;5028888;28;20396;-64
2022/05/29 13:17:36;;;;;;;7.18;2.25;;;12.40;99.90;;;;;;5029601;28;20041;-64
2022/05/29 13:20:18;;;;;;;2.78;1.20;;;12.50;99.90;;;;;;5049989;28;20047;-65
2022/05/29 13:22:52;;;;;;;5.20;1.10;;;12.50;99.90;;;;;;5032052;28;20054;-64
2022/05/29 13:25:20;;;;;;;7.90;1.38;;;12.50;99.90;;;;;;5036634;28;20108;-64
2022/05/29 13:27:46;;;;;;;6.88;1.40;;;;;;;;;;5048147;28;20041;-65
2022/05/29 13:30:34;;;;;;;7.32;1.83;;;12.60;99.90;;;;;;5048864;28;20033;-64
2022/05/29 13:33:24;;;;;;;7.22;1.48;;;12.70;99.90;;;;;;5049654;28;20051;-65
2022/05/29 13:35:51;;;;;;;4.93;1.15;;;12.70;99.90;;;;;;5047354;28;20048;-64
2022/05/29 13:38:44;;;;;;;7.00;1.95;;;12.80;99.90;;;;;;5048929;28;20080;-64
2022/05/29 13:41:27;;;;;;;7.35;1.60;;;12.90;99.90;;;;;;5049151;28;20455;-64
2022/05/29 13:43:52;;;;;;;22.52;3.13;;;12.90;99.90;;;;;;5049519;28;20041;-64
2022/05/29 13:46:23;;;;;;;7.60;1.73;;;13.00;99.90;;;;;;5049174;28;20242;-64
2022/05/29 13:49:04;;;;;;;4.25;1.15;;;12.80;99.90;;;;;;5049200;28;20116;-64
2022/05/29 13:51:41;;;;;;;6.32;1.55;;;12.90;99.90;;;;;;5044613;28;20056;-63
2022/05/29 13:54:10;;;;;;;9.98;1.70;;;13.00;99.90;;;;;;5039081;28;20541;-62
2022/05/29 13:57:03;;;;;;;7.53;1.80;;;13.00;99.90;;;;;;5048215;28;20044;-63
2022/05/29 14:05:43;;;;;;;7.20;1.65;;;12.90;99.90;;;;;;5043646;28;20057;-63
2022/05/29 14:08:18;;;;;;;9.95;1.90;;;12.90;99.90;;;;;;5043960;28;20151;-64
2022/05/29 14:11:00;;;;;;;11.15;2.33;;;12.80;99.90;;;;;;5042997;28;20044;-64
2022/05/29 14:13:51;;;;;;;9.65;1.95;;;12.70;99.90;;;;;;5045685;28;20072;-64
2022/05/29 14:16:29;;;;;;;13.05;2.17;;;12.70;99.90;;;;;;5042997;28;20040;-63
2022/05/29 14:19:10;;;;;;;12.10;1.63;;;12.60;99.90;;;;;;5040400;28;20147;-64
2022/05/29 14:22:11;;;;;;;6.85;1.92;;;12.30;99.90;;;;;;5038271;28;20041;-64